ウィニペグ の空港の天気 - METARとTAF

ウィニペグ国際空港 ( CYWG / YWG ) - カナダ マニトバ州ウィニペグ
飛行場実況気象(Metar)
観測時間08/22 11:00 CDT (08/22 16:00 UTC)
風向・風速東南東 4m/s
視程10km以上
天気現象
少しの雲 雲底高度 760m
少しの雲 雲底高度 3660m
気温17℃
湿度63%
気圧1020.9hPa
METARCYWG 221600Z 12007KT 15SM FEW025 FEW120 17/10 A3013 RMK CU2AC1 AC TR SLP209 DENSITY ALT 1000FT
過去の天気等 Google飛行場航空写真 Wunderground天気予報

過去48時間のMETAR

飛行場予報(TAF)
発表時間: 8/22 06:42 CDT (8/22 11:42 UTC)
予報対象時間: 22日7時 CDT ~ 23日7時 CDT
風向・風速北東 3m/s
視程10km以上
少しの雲 雲底高度 3050m
22日7時 CDT から 確率 30% で
視程1210m
天気現象もや
22日8時 CDT から
風向・風速不定 2m/s
視程10km以上
なし
22日8時 CDT ~ 22日10時 CDT に徐々に
風向・風速東南東 5m/s
22日17時 CDT から
風向・風速南南東 5m/s
視程10km以上
なし
TAF CYWG 221142Z 2212/2312 04005KT P6SM FEW100
PROB30 2212/2213 3/4SM BR
FM221300 VRB03KT P6SM SKC
BECMG 2213/2215 12010KT
FM222200 15010KT P6SM SKC RMK NXT FCST BY 221800Z